Data for 11/06/2015

Time Sea-Level Adjusted Pressure Absolute Pressure Temperature Relative Humidity Dew Point   
(mb) (inHg) (mb) (inHg) (C) (F) (%) (C) (F)
00:05 1020 30.12 849 25.07 -1.7 29 91 -2.9 26.8
00:10 1020 30.12 849 25.07 -1.7 29 91 -2.9 26.8
00:15 1020 30.12 849 25.07 -1.6 29.1 91 -2.9 26.9
00:20 1020 30.12 849 25.07 -1.6 29 91 -2.9 26.8
00:25 1020 30.12 849 25.07 -1.7 28.9 92 -2.9 26.7
00:30 1020 30.12 849 25.07 -1.8 28.8 92 -2.9 26.7
00:35 1019 30.09 849 25.07 -1.8 28.8 92 -3 26.7
00:40 1019 30.09 849 25.07 -1.8 28.7 91 -3 26.6
00:45 1019 30.09 849 25.07 -1.8 28.8 91 -3.1 26.5
00:50 1019 30.09 849 25.07 -1.7 28.9 90 -3.1 26.4
00:55 1019 30.09 849 25.07 -1.7 28.9 89 -3.2 26.2
01:00 1019 30.09 849 25.07 -1.7 28.9 88 -3.4 25.9
01:05 1019 30.09 849 25.07 -1.7 29 88 -3.4 25.9
01:10 1020 30.12 849 25.07 -1.7 29 88 -3.4 25.9
01:15 1020 30.12 849 25.07 -1.8 28.8 89 -3.4 25.8
01:20 1020 30.12 849 25.07 -2 28.5 90 -3.4 25.8
01:25 1020 30.12 849 25.07 -2.1 28.3 91 -3.4 25.9
01:30 1020 30.12 849 25.07 -2.1 28.2 91 -3.4 25.9
01:35 1020 30.12 849 25.07 -2.2 28.1 91 -3.4 25.8
01:40 1020 30.12 849 25.07 -2.2 28.1 91 -3.4 25.8
01:45 1020 30.12 849 25.07 -2.2 28.1 91 -3.4 25.8
01:50 1020 30.12 849 25.07 -2.2 28.1 91 -3.5 25.8
01:55 1020 30.12 849 25.07 -2.1 28.2 91 -3.5 25.8
02:00 1020 30.12 849 25.07 -2.1 28.2 91 -3.5 25.8
02:05 1020 30.12 849 25.07 -2.1 28.2 91 -3.4 25.8
02:10 1020 30.12 849 25.07 -2 28.4 90 -3.4 25.8
02:15 1020 30.12 849 25.07 -2 28.5 90 -3.5 25.8
02:20 1020 30.12 849 25.07 -1.9 28.5 90 -3.4 25.8
02:25 1020 30.12 849 25.07 -1.9 28.6 90 -3.4 25.9
02:30 1020 30.12 849 25.07 -1.9 28.5 90 -3.4 25.8
02:35 1020 30.12 849 25.07 -1.9 28.5 89 -3.5 25.8
02:40 1020 30.12 849 25.07 -2 28.5 89 -3.6 25.5
02:45 1020 30.12 849 25.07 -1.9 28.5 88 -3.6 25.5
02:50 1020 30.12 850 25.1 -1.9 28.6 88 -3.6 25.6
02:55 1020 30.12 850 25.1 -1.8 28.7 88 -3.5 25.7
03:00 1020 30.12 850 25.1 -1.8 28.8 89 -3.4 25.9
03:05 1021 30.15 850 25.1 -1.7 28.9 89 -3.3 26.1
03:10 1021 30.15 850 25.1 -1.7 28.9 89 -3.2 26.2
03:15 1021 30.15 850 25.1 -1.7 29 89 -3.3 26.1
03:20 1021 30.15 850 25.1 -1.7 29 88 -3.3 26
03:25 1021 30.15 850 25.1 -1.7 29 88 -3.4 25.9
03:30 1021 30.15 850 25.1 -1.7 29 88 -3.4 25.9
03:35 1021 30.15 850 25.1 -1.7 28.9 88 -3.4 25.9
03:40 1021 30.15 850 25.1 -1.8 28.8 89 -3.4 25.8
03:45 1021 30.15 850 25.1 -1.9 28.6 89 -3.4 25.8
03:50 1021 30.15 850 25.1 -2 28.5 90 -3.4 25.8
03:55 1021 30.15 850 25.1 -2 28.4 90 -3.4 25.8
04:00 1021 30.15 850 25.1 -2 28.4 91 -3.4 26
04:05 1021 30.15 850 25.1 -2 28.4 91 -3.3 26
04:10 1021 30.15 850 25.1 -2.1 28.3 91 -3.4 25.9
04:15 1021 30.15 850 25.1 -2.1 28.1 91 -3.4 26
04:20 1021 30.15 850 25.1 -2.2 28.1 92 -3.4 25.9
04:25 1021 30.15 850 25.1 -2.2 28.1 92 -3.3 26
04:30 1021 30.15 850 25.1 -2.2 28.1 92 -3.3 26
04:35 1021 30.15 850 25.1 -2.2 28 92 -3.3 26
04:40 1021 30.15 850 25.1 -2.2 28 92 -3.3 26
04:45 1021 30.15 850 25.1 -2.2 28 92 -3.3 26
04:50 1021 30.15 850 25.1 -2.3 27.9 92 -3.3 26
04:55 1021 30.15 850 25.1 -2.3 27.9 92 -3.4 26
05:00 1021 30.15 851 25.13 -2.3 27.9 93 -3.3 26
05:05 1021 30.15 851 25.13 -2.2 28.1 92 -3.2 26.2
05:10 1022 30.18 851 25.13 -2.1 28.1 92 -3.2 26.2
05:15 1022 30.18 851 25.13 -2.1 28.2 92 -3.2 26.2
05:20 1022 30.18 851 25.13 -2.1 28.2 92 -3.2 26.2
05:25 1022 30.18 851 25.13 -2 28.3 92 -3.2 26.3
05:30 1022 30.18 851 25.13 -2 28.4 92 -3.2 26.3
05:35 1022 30.18 851 25.13 -2 28.4 92 -3.2 26.3
05:40 1022 30.18 851 25.13 -2 28.4 91 -3.2 26.2
05:45 1022 30.18 851 25.13 -2.1 28.3 91 -3.3 26.1
05:50 1022 30.18 851 25.13 -2 28.3 91 -3.3 26.1
05:55 1022 30.18 851 25.13 -2 28.4 91 -3.3 26
06:00 1022 30.18 851 25.13 -2 28.4 91 -3.4 26
06:05 1022 30.18 851 25.13 -2 28.4 90 -3.5 25.8
06:10 1022 30.18 851 25.13 -2 28.4 89 -3.5 25.7
06:15 1022 30.18 851 25.13 -2 28.4 89 -3.6 25.5
06:20 1022 30.18 851 25.13 -2 28.5 89 -3.6 25.5
06:25 1022 30.18 851 25.13 -2 28.4 88 -3.7 25.3
06:30 1022 30.18 852 25.16 -1.9 28.5 88 -3.7 25.3
06:35 1022 30.18 852 25.16 -1.9 28.7 87 -3.8 25.2
06:40 1022 30.18 852 25.16 -1.8 28.7 87 -3.8 25.2
06:45 1022 30.18 852 25.16 -1.8 28.7 86 -3.9 25
06:50 1023 30.21 852 25.16 -1.8 28.7 86 -3.9 25
06:55 1023 30.21 852 25.16 -1.8 28.7 85 -3.9 24.9
07:00 1023 30.21 852 25.16 -1.8 28.7 85 -4.1 24.7
07:05 1023 30.21 852 25.16 -1.9 28.6 85 -4.1 24.6
07:10 1023 30.21 852 25.16 -1.9 28.6 85 -4.1 24.6
07:15 1023 30.21 852 25.16 -1.9 28.6 85 -4.1 24.6
07:20 1023 30.21 852 25.16 -1.9 28.6 84 -4.2 24.5
07:25 1023 30.21 852 25.16 -1.9 28.7 85 -4.1 24.6
07:30 1023 30.21 852 25.16 -1.7 28.9 84 -4 24.7
07:35 1023 30.21 852 25.16 -1.8 28.8 84 -4.1 24.6
07:40 1023 30.21 852 25.16 -1.8 28.8 84 -4.1 24.6
07:45 1023 30.21 852 25.16 -1.7 28.9 83 -4.2 24.4
07:50 1023 30.21 852 25.16 -1.6 29.1 82 -4.3 24.3
07:55 1023 30.21 852 25.16 -1.5 29.2 82 -4.2 24.5
08:00 1023 30.21 852 25.16 -1.5 29.2 82 -4.2 24.4
08:05 1023 30.21 852 25.16 -1.6 29.1 82 -4.3 24.3
08:10 1023 30.21 852 25.16 -1.6 29.2 82 -4.3 24.3
08:15 1023 30.21 852 25.16 -1.6 29.2 82 -4.3 24.3
08:20 1023 30.21 852 25.16 -1.5 29.2 82 -4.3 24.3
08:25 1023 30.21 852 25.16 -1.6 29.1 82 -4.3 24.3
08:30 1023 30.21 852 25.16 -1.6 29.1 81 -4.5 24
08:35 1023 30.21 852 25.16 -1.6 29.2 81 -4.4 24.1
08:40 1023 30.21 852 25.16 -1.5 29.2 81 -4.4 24
08:45 1023 30.21 852 25.16 -1.5 29.3 81 -4.4 24.1
08:50 1023 30.21 852 25.16 -1.4 29.4 80 -4.5 24
08:55 1023 30.21 853 25.19 -1.4 29.5 80 -4.5 24
09:00 1023 30.21 853 25.19 -1.4 29.5 79 -4.5 23.9
09:05 1024 30.24 853 25.19 -1.3 29.6 79 -4.5 24
09:10 1024 30.24 853 25.19 -1.3 29.7 79 -4.5 23.9
09:15 1024 30.24 853 25.19 -1.2 29.8 79 -4.5 24
09:20 1024 30.24 853 25.19 -1.1 30 79 -4.3 24.2
09:25 1024 30.24 853 25.19 -1 30.1 79 -4.3 24.2
09:30 1024 30.24 853 25.19 -1 30.2 78 -4.3 24.2
09:35 1024 30.24 853 25.19 -1 30.3 78 -4.3 24.2
09:40 1024 30.24 853 25.19 -1 30.2 78 -4.3 24.2
09:45 1024 30.24 853 25.19 -0.8 30.5 77 -4.4 24.1
09:50 1024 30.24 853 25.19 -0.8 30.6 77 -4.4 24.1
09:55 1024 30.24 853 25.19 -0.6 31 75 -4.4 24.1
10:00 1024 30.24 853 25.19 -0.4 31.2 75 -4.4 24.1
10:05 1024 30.24 853 25.19 -0.2 31.7 73 -4.4 24.1
10:10 1024 30.24 853 25.19 0.1 32.1 72 -4.4 24.1
10:15 1024 30.24 853 25.19 0.1 32.2 73 -4.2 24.5
10:20 1024 30.24 853 25.19 0.1 32.3 72 -4.4 24.1
10:25 1024 30.24 853 25.19 0.2 32.4 72 -4.3 24.3
10:30 1024 30.24 853 25.19 0.4 32.7 71 -4.2 24.5
10:35 1024 30.24 853 25.19 0.7 33.2 70 -4.2 24.5
10:40 1024 30.24 853 25.19 1 33.7 69 -4 24.7
10:45 1024 30.24 854 25.22 0.9 33.7 69 -4.2 24.5
10:50 1024 30.24 854 25.22 0.6 33.1 67 -4.8 23.4
10:55 1024 30.24 854 25.22 0.7 33.2 66 -5 23
11:00 1024 30.24 854 25.22 0.7 33.2 65 -5.2 22.7
11:05 1025 30.27 854 25.22 0.5 33 66 -5 22.9
11:10 1025 30.27 854 25.22 1.2 34.2 61 -5.5 22
11:15 1025 30.27 854 25.22 1.4 34.5 61 -5.3 22.4
11:20 1025 30.27 854 25.22 1.4 34.5 60 -5.6 21.9
11:25 1025 30.27 854 25.22 1.1 34 59 -6 21.2
11:30 1025 30.27 854 25.22 1.1 34 59 -6 21.3
11:35 1025 30.27 854 25.22 1.3 34.3 56 -6.6 20.1
11:40 1025 30.27 854 25.22 1.4 34.5 56 -6.3 20.6
11:45 1025 30.27 854 25.22 2.1 35.7 51 -7 19.5
11:50 1025 30.27 854 25.22 2.4 36.3 50 -7 19.3
11:55 1025 30.27 854 25.22 2.6 36.7 51 -6.6 20.2
12:00 1025 30.27 854 25.22 2.7 36.9 51 -6.4 20.4
12:05 1025 30.27 854 25.22 2.6 36.6 53 -6 21.1
12:10 1025 30.27 854 25.22 2.9 37.2 52 -6.1 21
12:15 1025 30.27 854 25.22 2.9 37.2 52 -6 21.1
12:20 1025 30.27 854 25.22 2.6 36.6 53 -6.1 21
12:25 1025 30.27 854 25.22 2.8 37 52 -6.1 21.1
12:30 1025 30.27 854 25.22 2.6 36.6 53 -6 21.1
12:35 1025 30.27 854 25.22 3 37.4 53 -5.6 22
12:40 1025 30.27 854 25.22 3 37.5 54 -5.5 22.2
12:45 1025 30.27 854 25.22 3.3 37.9 52 -5.7 21.8
12:50 1025 30.27 854 25.22 3.3 38 54 -5.1 22.9
12:55 1025 30.27 854 25.22 3.1 37.5 54 -5.4 22.2
13:00 1025 30.27 854 25.22 3.1 37.5 54 -5.3 22.4
13:05 1025 30.27 854 25.22 3 37.5 54 -5.5 22.1
13:10 1025 30.27 854 25.22 3.1 37.6 54 -5.4 22.3
13:15 1025 30.27 854 25.22 3.3 38 53 -5.4 22.2
13:20 1025 30.27 854 25.22 3.4 38.1 53 -5.4 22.3
13:25 1025 30.27 854 25.22 3.1 37.6 54 -5.2 22.6
13:30 1025 30.27 854 25.22 3 37.4 53 -5.7 21.8
13:35 1024 30.24 854 25.22 3.1 37.5 53 -5.6 22
13:40 1024 30.24 854 25.22 2.9 37.2 52 -6.1 21
13:45 1025 30.27 854 25.22 2.8 37 52 -6 21.2
13:50 1024 30.24 854 25.22 2.8 37 53 -5.8 21.6
13:55 1024 30.24 854 25.22 2.9 37.2 53 -5.7 21.7
14:00 1024 30.24 854 25.22 3.5 38.3 49 -6.3 20.7
14:05 1024 30.24 854 25.22 3.8 38.8 50 -5.8 21.6
14:10 1024 30.24 854 25.22 3.4 38.1 51 -5.9 21.4
14:15 1024 30.24 854 25.22 2.3 36.2 54 -6 21.3
14:20 1024 30.24 854 25.22 2.7 36.9 51 -6.5 20.3
14:25 1024 30.24 854 25.22 2.7 36.9 50 -6.7 20
14:30 1024 30.24 854 25.22 2.8 37.1 53 -5.9 21.4
14:35 1025 30.27 854 25.22 2.9 37.2 47 -7.3 18.9
14:40 1025 30.27 854 25.22 3.1 37.5 50 -6.4 20.4
14:45 1025 30.27 854 25.22 2.6 36.6 50 -6.9 19.5
14:50 1025 30.27 854 25.22 2.9 37.2 49 -6.8 19.7
14:55 1025 30.27 854 25.22 2.9 37.3 47 -7.2 19
15:00 1025 30.27 854 25.22 2.8 37 47 -7.3 18.8
15:05 1025 30.27 854 25.22 3.1 37.6 47 -7.2 19.1
15:10 1025 30.27 854 25.22 3.4 38.1 45 -7.3 18.8
15:15 1025 30.27 854 25.22 3.6 38.5 44 -7.4 18.6
15:20 1025 30.27 854 25.22 3.8 38.8 43 -7.6 18.2
15:25 1025 30.27 854 25.22 3.7 38.6 44 -7.6 18.3
15:30 1025 30.27 854 25.22 3.7 38.7 44 -7.4 18.8
15:35 1025 30.27 854 25.22 3.8 38.9 43 -7.6 18.4
15:40 1025 30.27 854 25.22 3.9 39.1 44 -7.3 18.9
15:45 1025 30.27 854 25.22 3.7 38.7 44 -7.5 18.5
15:50 1025 30.27 854 25.22 3.7 38.6 43 -7.9 17.9
15:55 1025 30.27 854 25.22 3.7 38.7 43 -7.9 17.8
16:00 1025 30.27 854 25.22 3.6 38.5 43 -7.8 17.9
16:05 1025 30.27 854 25.22 3.7 38.6 41 -8.5 16.7
16:10 1025 30.27 854 25.22 3.8 38.9 40 -8.6 16.4
16:15 1025 30.27 854 25.22 3.7 38.6 39 -8.9 16.1
16:20 1025 30.27 854 25.22 3.6 38.5 39 -9 15.8
16:25 1025 30.27 854 25.22 3.7 38.6 40 -8.7 16.4
16:30 1025 30.27 854 25.22 3.6 38.5 39 -9 15.8
16:35 1025 30.27 854 25.22 3.5 38.3 39 -9.3 15.3
16:40 1025 30.27 854 25.22 3.4 38 40 -9.1 15.6
16:45 1025 30.27 854 25.22 3.3 37.9 41 -8.9 16
16:50 1025 30.27 854 25.22 3.3 37.9 41 -8.9 16
16:55 1025 30.27 854 25.22 3.2 37.8 42 -8.5 16.7
17:00 1025 30.27 854 25.22 3.1 37.5 42 -8.6 16.5
17:05 1025 30.27 854 25.22 2.9 37.2 43 -8.5 16.7
17:10 1025 30.27 854 25.22 2.6 36.7 43 -8.7 16.3
17:15 1025 30.27 854 25.22 2.6 36.6 44 -8.5 16.7
17:20 1025 30.27 854 25.22 2.5 36.5 44 -8.5 16.7
17:25 1025 30.27 854 25.22 2.5 36.4 46 -8.1 17.4
17:30 1025 30.27 854 25.22 2.4 36.4 46 -8 17.7
17:35 1025 30.27 854 25.22 2.3 36.1 47 -7.9 17.7
17:40 1025 30.27 854 25.22 2 35.6 47 -8.1 17.4
17:45 1025 30.27 854 25.22 1.9 35.4 48 -8.1 17.5
17:50 1025 30.27 854 25.22 1.9 35.3 48 -8.1 17.4
17:55 1025 30.27 854 25.22 1.8 35.3 49 -7.8 17.9
18:00 1025 30.27 854 25.22 1.5 34.8 50 -7.8 18
18:05 1025 30.27 854 25.22 1.2 34.2 51 -7.9 17.8
18:10 1025 30.27 854 25.22 1 33.7 52 -7.8 18
18:15 1025 30.27 855 25.25 0.8 33.4 53 -7.8 18
18:20 1025 30.27 855 25.25 0.5 32.9 55 -7.7 18.2
18:25 1025 30.27 855 25.25 0.3 32.5 55 -7.7 18.1
18:30 1025 30.27 855 25.25 0.2 32.4 55 -7.9 17.7
18:35 1026 30.3 855 25.25 0.1 32.2 54 -8 17.6
18:40 1026 30.3 855 25.25 -0.4 31.3 59 -7.5 18.6
18:45 1026 30.3 855 25.25 -1.2 29.9 59 -8.1 17.4
18:50 1025 30.27 855 25.25 -0.9 30.4 58 -8.1 17.4
18:55 1025 30.27 855 25.25 -0.7 30.7 58 -8.1 17.5
19:00 1026 30.3 855 25.25 -0.8 30.6 62 -7.2 19
19:05 1026 30.3 855 25.25 -1.6 29.2 65 -7.4 18.7
19:10 1026 30.3 855 25.25 -1.3 29.7 62 -7.7 18.2
19:15 1026 30.3 855 25.25 -1 30.1 57 -8.4 16.8
19:20 1026 30.3 855 25.25 -0.5 31.1 56 -8.3 17.1
19:25 1026 30.3 855 25.25 -0.4 31.3 56 -8.1 17.4
19:30 1026 30.3 855 25.25 -0.5 31.1 57 -7.9 17.7
19:35 1026 30.3 855 25.25 -1.1 30.1 62 -7.5 18.4
19:40 1026 30.3 855 25.25 -1.5 29.3 58 -8.8 16.2
19:45 1026 30.3 855 25.25 -1.2 29.9 59 -8.1 17.4
19:50 1026 30.3 855 25.25 -1.2 29.8 59 -8.2 17.2
19:55 1026 30.3 855 25.25 -1.6 29.1 63 -7.8 17.9
20:00 1026 30.3 855 25.25 -2.1 28.2 65 -7.9 17.8
20:05 1026 30.3 855 25.25 -2.2 28.1 65 -7.8 17.9
20:10 1026 30.3 855 25.25 -2 28.4 64 -8 17.7
20:15 1026 30.3 855 25.25 -2.1 28.2 67 -7.5 18.6
20:20 1026 30.3 855 25.25 -2.5 27.4 69 -7.5 18.5
20:25 1026 30.3 855 25.25 -2.8 27 69 -7.6 18.3
20:30 1026 30.3 855 25.25 -2.7 27.2 69 -7.6 18.2
20:35 1026 30.3 855 25.25 -2.4 27.7 69 -7.4 18.7
20:40 1026 30.3 855 25.25 -2.7 27.1 70 -7.5 18.4
20:45 1026 30.3 855 25.25 -2.7 27.2 69 -7.7 18.2
20:50 1026 30.3 855 25.25 -2.7 27.2 69 -7.6 18.3
20:55 1026 30.3 855 25.25 -2.8 27 68 -7.9 17.8
21:00 1026 30.3 855 25.25 -2.8 27 68 -7.9 17.8
21:05 1026 30.3 855 25.25 -2.6 27.3 67 -8 17.7
21:10 1026 30.3 855 25.25 -2.7 27.2 67 -7.9 17.7
21:15 1026 30.3 855 25.25 -2.7 27.2 67 -7.9 17.7
21:20 1026 30.3 855 25.25 -2.7 27.1 68 -7.9 17.9
21:25 1026 30.3 855 25.25 -2.7 27.1 67 -8 17.7
21:30 1026 30.3 855 25.25 -2.9 26.9 69 -7.8 18
21:35 1026 30.3 855 25.25 -3 26.6 68 -8 17.6
21:40 1026 30.3 855 25.25 -3 26.5 67 -8.3 17
21:45 1026 30.3 855 25.25 -3 26.5 66 -8.4 16.8
21:50 1026 30.3 855 25.25 -2.9 26.8 65 -8.7 16.4
21:55 1026 30.3 855 25.25 -2.7 27.1 64 -8.7 16.4
22:00 1026 30.3 855 25.25 -2.8 26.9 64 -8.7 16.3
22:05 1026 30.3 855 25.25 -3 26.7 66 -8.5 16.7
22:10 1026 30.3 855 25.25 -3.2 26.2 67 -8.5 16.8
22:15 1026 30.3 855 25.25 -3 26.5 66 -8.5 16.6
22:20 1026 30.3 855 25.25 -3 26.6 65 -8.8 16.2
22:25 1026 30.3 855 25.25 -3.1 26.4 64 -8.9 16
22:30 1026 30.3 855 25.25 -3 26.6 64 -8.9 16
22:35 1026 30.3 855 25.25 -2.9 26.7 63 -9 15.8
22:40 1026 30.3 855 25.25 -2.9 26.9 64 -8.8 16.1
22:45 1026 30.3 855 25.25 -2.8 26.9 63 -8.9 16
22:50 1026 30.3 855 25.25 -2.9 26.8 63 -8.9 15.9
22:55 1026 30.3 855 25.25 -2.9 26.7 64 -8.8 16.1
23:00 1026 30.3 855 25.25 -2.9 26.7 64 -8.9 16
23:05 1026 30.3 855 25.25 -3 26.7 64 -8.9 16
23:10 1026 30.3 855 25.25 -3 26.6 64 -8.9 16
23:15 1026 30.3 855 25.25 -3 26.6 63 -9.1 15.6
23:20 1026 30.3 855 25.25 -3.1 26.4 64 -8.9 16
23:25 1026 30.3 855 25.25 -3.3 26.1 66 -8.8 16.2
23:30 1026 30.3 855 25.25 -3.2 26.2 65 -8.8 16.2
23:35 1026 30.3 855 25.25 -3.3 26.1 66 -8.7 16.3
23:40 1026 30.3 855 25.25 -3.3 26 66 -8.7 16.3
23:45 1026 30.3 855 25.25 -3.4 25.8 66 -8.8 16.1
23:50 1026 30.3 855 25.25 -3.3 26 65 -8.9 15.9
23:55 1026 30.3 855 25.25 -3.3 26 65 -9 15.9
24:00 1026 30.3 856 25.28 -3.4 25.9 68 -8.5 16.8